createdAt,value
2023-02-22T00:01:07.611Z,11.63
2023-02-22T00:03:36.122Z,11.45
2023-02-22T00:06:07.236Z,11.24
2023-02-22T00:08:38.296Z,11.25
2023-02-22T00:11:09.633Z,11.44
2023-02-22T00:13:40.168Z,11.68
2023-02-22T00:16:08.662Z,11.41
2023-02-22T00:18:37.778Z,11.14
2023-02-22T00:21:10.587Z,11.41
2023-02-22T00:23:46.420Z,11.45
2023-02-22T00:26:18.306Z,11.61
2023-02-22T00:28:51.138Z,11.66
2023-02-22T00:31:20.743Z,11.52
2023-02-22T00:33:49.043Z,11.65
2023-02-22T00:36:17.004Z,11.48
2023-02-22T00:38:45.017Z,11.42
2023-02-22T00:41:13.655Z,11.26
2023-02-22T00:43:41.548Z,11.08
2023-02-22T00:46:10.872Z,11.26
2023-02-22T00:48:38.790Z,11.51
2023-02-22T00:51:07.407Z,11.29
2023-02-22T00:53:35.314Z,11.37
2023-02-22T00:56:03.218Z,11.50
2023-02-22T00:58:32.002Z,11.48
2023-02-22T01:00:59.953Z,11.55
2023-02-22T01:03:29.304Z,11.48
2023-02-22T01:05:57.416Z,11.20
2023-02-22T01:08:25.980Z,11.27
2023-02-22T01:10:53.838Z,11.16
2023-02-22T01:13:21.828Z,11.32
2023-02-22T01:15:49.936Z,11.29
2023-02-22T01:18:18.324Z,11.24
2023-02-22T01:20:48.165Z,11.49
2023-02-22T01:23:17.373Z,10.95
2023-02-22T01:25:45.563Z,11.13
2023-02-22T01:28:14.183Z,11.31
2023-02-22T01:30:42.345Z,10.90
2023-02-22T01:33:12.787Z,11.44
2023-02-22T01:35:41.891Z,11.42
2023-02-22T01:38:11.872Z,11.46
2023-02-22T01:40:43.010Z,11.10
2023-02-22T01:43:24.405Z,10.61
2023-02-22T01:45:59.991Z,10.72
2023-02-22T01:48:36.424Z,10.70
2023-02-22T01:51:12.060Z,10.61
2023-02-22T01:53:50.125Z,10.69
2023-02-22T01:56:20.773Z,10.58
2023-02-22T01:58:55.503Z,10.95
2023-02-22T02:01:26.450Z,10.86
2023-02-22T02:04:00.601Z,10.61
2023-02-22T02:06:33.042Z,10.52
2023-02-22T02:09:12.344Z,10.43
2023-02-22T02:11:43.041Z,10.50
2023-02-22T02:14:13.669Z,10.73
2023-02-22T02:16:45.909Z,10.80
2023-02-22T02:19:27.468Z,10.48
2023-02-22T02:22:30.124Z,10.85
2023-02-22T02:25:51.623Z,10.33
2023-02-22T02:29:06.031Z,10.91
2023-02-22T02:32:30.064Z,10.68
2023-02-22T02:35:05.043Z,10.69
2023-02-22T02:37:46.712Z,10.42
2023-02-22T02:40:26.568Z,10.74
2023-02-22T02:43:05.004Z,10.57
2023-02-22T02:45:43.492Z,10.54
2023-02-22T02:48:16.782Z,10.61
2023-02-22T02:50:49.865Z,10.62
2023-02-22T02:53:26.695Z,10.41
2023-02-22T02:55:54.611Z,10.38
2023-02-22T02:58:24.759Z,10.36
2023-02-22T03:00:57.376Z,10.25
2023-02-22T03:03:53.465Z,10.08
2023-02-22T03:07:04.062Z,10.35
2023-02-22T03:09:48.000Z,10.27
2023-02-22T03:12:32.222Z,10.26
2023-02-22T03:15:21.882Z,10.28
2023-02-22T03:18:01.670Z,9.74
2023-02-22T03:20:43.148Z,10.05
2023-02-22T03:23:25.282Z,10.33
2023-02-22T03:25:58.597Z,10.29
2023-02-22T03:28:29.504Z,10.16
2023-02-22T03:31:02.909Z,10.22
2023-02-22T03:33:36.572Z,10.34
2023-02-22T03:36:17.113Z,10.10
2023-02-22T03:38:47.104Z,9.95
2023-02-22T03:41:19.768Z,10.05
2023-02-22T03:43:54.574Z,10.02
2023-02-22T03:46:24.675Z,9.93
2023-02-22T03:49:01.560Z,9.90
2023-02-22T03:51:30.767Z,10.06
2023-02-22T03:53:58.822Z,9.97
2023-02-22T03:56:35.855Z,10.15
2023-02-22T03:59:06.217Z,10.07
2023-02-22T04:01:33.953Z,9.90
2023-02-22T04:04:02.275Z,10.48
2023-02-22T04:06:31.960Z,10.37
2023-02-22T04:08:59.924Z,10.03
2023-02-22T04:11:27.838Z,10.20
2023-02-22T04:13:55.780Z,10.03
2023-02-22T04:16:23.587Z,9.85
2023-02-22T04:18:51.410Z,10.42
2023-02-22T04:21:19.499Z,10.01
2023-02-22T04:23:48.752Z,9.99
2023-02-22T04:26:17.005Z,9.64
2023-02-22T04:28:44.832Z,10.23
2023-02-22T04:31:12.820Z,9.99
2023-02-22T04:33:40.745Z,9.88
2023-02-22T04:36:10.754Z,10.43
2023-02-22T04:38:38.911Z,10.76
2023-02-22T04:41:08.247Z,10.11
2023-02-22T04:43:36.097Z,10.27
2023-02-22T04:46:04.430Z,9.68
2023-02-22T04:48:32.649Z,10.05
2023-02-22T04:51:00.539Z,10.28
2023-02-22T04:53:28.399Z,10.59
2023-02-22T04:55:56.329Z,10.60
2023-02-22T04:58:25.746Z,10.33
2023-02-22T05:00:54.066Z,10.60
2023-02-22T05:03:22.037Z,10.66
2023-02-22T05:05:52.306Z,10.41
2023-02-22T05:08:20.179Z,10.18
2023-02-22T05:10:48.107Z,9.70
2023-02-22T05:13:16.484Z,9.62
2023-02-22T05:15:45.881Z,9.84
2023-02-22T05:18:14.025Z,9.99
2023-02-22T05:20:42.299Z,9.34
2023-02-22T05:23:10.363Z,9.54
2023-02-22T05:25:38.622Z,9.21
2023-02-22T05:28:12.669Z,9.77
2023-02-22T05:30:42.411Z,9.75
2023-02-22T05:33:13.074Z,9.57
2023-02-22T05:35:41.194Z,9.67
2023-02-22T05:38:10.864Z,9.68
2023-02-22T05:40:38.736Z,9.27
2023-02-22T05:43:06.700Z,9.01
2023-02-22T05:45:36.094Z,9.35
2023-02-22T05:48:04.634Z,9.38
2023-02-22T05:50:34.462Z,9.27
2023-02-22T05:53:03.194Z,9.12
2023-02-22T05:55:31.050Z,9.21
2023-02-22T05:57:59.050Z,9.33
2023-02-22T06:00:30.354Z,9.27
2023-02-22T06:03:00.393Z,9.73
2023-02-22T06:05:29.790Z,9.47
2023-02-22T06:08:00.288Z,9.61
2023-02-22T06:10:29.223Z,9.53
2023-02-22T06:12:58.862Z,9.65
2023-02-22T06:15:28.659Z,9.59
2023-02-22T06:17:58.832Z,9.44
2023-02-22T06:20:29.577Z,9.32
2023-02-22T06:22:59.730Z,9.85
2023-02-22T06:25:32.245Z,9.93
2023-02-22T06:28:01.656Z,9.44
2023-02-22T06:30:30.450Z,9.40
2023-02-22T06:32:58.746Z,9.46
2023-02-22T06:35:26.883Z,9.17
2023-02-22T06:37:54.832Z,9.13
2023-02-22T06:40:24.272Z,9.23
2023-02-22T06:42:53.772Z,9.07
2023-02-22T06:45:22.550Z,8.84
2023-02-22T06:47:51.071Z,9.13
2023-02-22T06:50:24.175Z,9.26
2023-02-22T06:52:54.724Z,9.28
2023-02-22T06:55:27.428Z,9.40
2023-02-22T06:57:55.677Z,9.43
2023-02-22T07:00:27.349Z,9.04
2023-02-22T07:02:57.400Z,9.23
2023-02-22T07:05:27.334Z,9.02
2023-02-22T07:08:02.731Z,9.20
2023-02-22T07:10:34.242Z,9.43
2023-02-22T07:13:03.403Z,9.22
2023-02-22T07:15:33.977Z,9.21
2023-02-22T07:18:03.977Z,9.11
2023-02-22T07:20:33.044Z,9.11
2023-02-22T07:23:02.214Z,9.06
2023-02-22T07:25:31.769Z,8.98
2023-02-22T07:28:00.537Z,9.06
2023-02-22T07:30:31.712Z,8.99
2023-02-22T07:33:03.254Z,8.70
2023-02-22T07:35:33.887Z,8.76
2023-02-22T07:38:01.868Z,8.86
2023-02-22T07:40:31.439Z,8.88
2023-02-22T07:43:07.028Z,8.98
2023-02-22T07:45:39.819Z,9.21
2023-02-22T07:48:09.007Z,8.85
2023-02-22T07:50:37.552Z,9.10
2023-02-22T07:53:08.021Z,8.82
2023-02-22T07:55:37.510Z,8.93
2023-02-22T07:58:08.599Z,9.06
2023-02-22T08:00:40.313Z,9.31
2023-02-22T08:03:11.277Z,9.19
2023-02-22T08:05:42.617Z,9.17
2023-02-22T08:08:10.635Z,9.04
2023-02-22T08:10:41.751Z,9.02
2023-02-22T08:13:10.335Z,8.87
2023-02-22T08:15:40.824Z,8.91
2023-02-22T08:18:11.908Z,9.18
2023-02-22T08:20:46.276Z,9.05
2023-02-22T08:23:18.007Z,9.46
2023-02-22T08:25:47.447Z,9.38
2023-02-22T08:28:19.889Z,9.64
2023-02-22T08:30:47.787Z,9.34
2023-02-22T08:33:19.798Z,9.14
2023-02-22T08:35:50.349Z,8.98
2023-02-22T08:38:22.707Z,8.76
2023-02-22T08:40:53.081Z,9.03
2023-02-22T08:43:22.021Z,8.91
2023-02-22T08:45:51.783Z,8.66
2023-02-22T08:48:21.754Z,9.05
2023-02-22T08:50:49.975Z,9.25
2023-02-22T08:53:18.543Z,9.39
2023-02-22T08:55:46.905Z,9.07
2023-02-22T08:58:16.357Z,9.15
2023-02-22T09:00:44.838Z,9.48
2023-02-22T09:03:15.832Z,9.29
2023-02-22T09:05:44.987Z,9.40
2023-02-22T09:08:13.815Z,9.58
2023-02-22T09:10:41.867Z,9.33
2023-02-22T09:13:10.270Z,9.52
2023-02-22T09:15:40.764Z,9.92
2023-02-22T09:18:14.887Z,9.94
2023-02-22T09:20:44.163Z,9.99
2023-02-22T09:23:12.563Z,9.88
2023-02-22T09:25:43.160Z,9.64
2023-02-22T09:28:12.404Z,10.36
2023-02-22T09:30:42.260Z,9.95
2023-02-22T09:33:13.752Z,10.04
2023-02-22T09:35:46.498Z,9.93
2023-02-22T09:38:17.279Z,9.96
2023-02-22T09:40:50.509Z,9.66
2023-02-22T09:43:49.345Z,9.75
2023-02-22T09:46:34.598Z,9.78
2023-02-22T09:49:08.532Z,10.13
2023-02-22T09:51:44.369Z,9.74
2023-02-22T09:54:22.909Z,10.06
2023-02-22T09:56:57.390Z,10.05
2023-02-22T09:59:32.159Z,9.91
2023-02-22T10:02:14.411Z,9.90
2023-02-22T10:04:50.463Z,9.89
2023-02-22T10:07:31.718Z,10.10
2023-02-22T10:10:06.418Z,9.96
2023-02-22T10:12:50.665Z,9.63
2023-02-22T10:15:52.604Z,10.25
2023-02-22T10:19:10.802Z,10.00
2023-02-22T10:22:06.852Z,10.14
2023-02-22T10:24:52.234Z,10.05
2023-02-22T10:27:28.321Z,10.39
2023-02-22T10:30:22.037Z,10.36
2023-02-22T10:33:00.146Z,10.22
2023-02-22T10:35:33.916Z,10.00
2023-02-22T10:38:16.664Z,10.10
2023-02-22T10:40:50.418Z,9.79
2023-02-22T10:43:18.462Z,10.02
2023-02-22T10:45:46.484Z,9.94
2023-02-22T10:48:19.468Z,9.96
2023-02-22T10:50:50.542Z,10.34
2023-02-22T10:53:18.419Z,10.36
2023-02-22T10:56:13.030Z,10.33
2023-02-22T10:58:52.014Z,10.12
2023-02-22T11:01:29.598Z,10.37
2023-02-22T11:04:01.441Z,10.78
2023-02-22T11:06:32.922Z,11.18
2023-02-22T11:09:15.130Z,10.84
2023-02-22T11:11:46.427Z,11.05
2023-02-22T11:14:27.601Z,11.26
2023-02-22T11:16:58.227Z,11.29
2023-02-22T11:19:29.639Z,11.62
2023-02-22T11:22:12.183Z,11.28
2023-02-22T11:24:50.662Z,11.80
2023-02-22T11:27:34.469Z,12.09
2023-02-22T11:30:27.162Z,12.09
2023-02-22T11:32:59.800Z,12.57
2023-02-22T11:35:52.677Z,12.97
2023-02-22T11:38:24.373Z,13.46
2023-02-22T11:41:14.636Z,13.63
2023-02-22T11:43:46.525Z,13.26
2023-02-22T11:46:20.244Z,13.10
2023-02-22T11:49:04.637Z,13.25
2023-02-22T11:51:54.506Z,13.82
2023-02-22T11:55:02.176Z,13.58
2023-02-22T11:57:56.980Z,13.94
2023-02-22T12:00:41.021Z,13.53
2023-02-22T12:03:45.466Z,13.73
2023-02-22T12:06:29.525Z,13.98
2023-02-22T12:09:14.535Z,14.29
2023-02-22T12:12:02.610Z,14.21
2023-02-22T12:14:45.263Z,14.41
2023-02-22T12:17:31.001Z,13.97
2023-02-22T12:20:09.922Z,14.34
2023-02-22T12:22:54.582Z,14.31
2023-02-22T12:25:29.562Z,14.07
2023-02-22T12:28:23.739Z,14.13
2023-02-22T12:31:02.496Z,14.32
2023-02-22T12:33:50.920Z,14.64
2023-02-22T12:36:26.077Z,14.84
2023-02-22T12:39:07.406Z,15.57
2023-02-22T12:41:45.871Z,15.58
2023-02-22T12:44:23.312Z,15.95
2023-02-22T12:46:54.545Z,15.70
2023-02-22T12:49:35.886Z,15.88
2023-02-22T12:52:21.848Z,15.75
2023-02-22T12:55:00.419Z,15.79
2023-02-22T12:57:44.385Z,16.28
2023-02-22T13:00:26.245Z,15.74
2023-02-22T13:03:03.350Z,16.13
2023-02-22T13:05:40.273Z,16.41
2023-02-22T13:08:32.754Z,16.79
2023-02-22T13:11:19.686Z,16.25
2023-02-22T13:14:05.703Z,16.13
2023-02-22T13:16:52.685Z,15.97
2023-02-22T13:19:39.722Z,15.91
2023-02-22T13:22:17.341Z,15.41
2023-02-22T13:25:03.333Z,15.63
2023-02-22T13:27:42.026Z,15.72
2023-02-22T13:30:23.314Z,15.49
2023-02-22T13:33:21.217Z,15.56
2023-02-22T13:36:31.983Z,14.96
2023-02-22T13:39:40.471Z,15.18
2023-02-22T13:42:29.685Z,15.03
2023-02-22T13:45:41.804Z,14.87
2023-02-22T13:48:28.725Z,14.93
2023-02-22T13:51:12.709Z,15.19
2023-02-22T13:53:58.664Z,15.32
2023-02-22T13:56:52.075Z,15.04
2023-02-22T13:59:28.749Z,15.18
2023-02-22T14:02:04.981Z,14.82
2023-02-22T14:04:44.139Z,15.26
2023-02-22T14:07:57.293Z,15.33
2023-02-22T14:10:47.924Z,15.25
2023-02-22T14:13:18.175Z,15.25
2023-02-22T14:16:22.858Z,15.63
2023-02-22T14:19:06.483Z,15.43
2023-02-22T14:21:36.825Z,15.83
2023-02-22T14:24:12.662Z,15.67
2023-02-22T14:26:42.903Z,16.17
2023-02-22T14:29:21.669Z,15.32
2023-02-22T14:32:10.786Z,15.32
2023-02-22T14:35:00.859Z,15.39
2023-02-22T14:37:36.468Z,14.81
2023-02-22T14:40:19.068Z,15.38
2023-02-22T14:42:52.169Z,15.34
2023-02-22T14:45:29.930Z,15.03
2023-02-22T14:48:11.762Z,14.87
2023-02-22T14:50:49.884Z,15.38
2023-02-22T14:53:32.986Z,15.29
2023-02-22T14:56:06.944Z,14.95
2023-02-22T14:58:42.627Z,14.94
2023-02-22T15:01:47.504Z,15.30
2023-02-22T15:04:25.546Z,14.64
2023-02-22T15:06:59.769Z,15.10
2023-02-22T15:09:37.622Z,14.56
2023-02-22T15:12:18.216Z,14.70
2023-02-22T15:14:47.758Z,15.10
2023-02-22T15:17:22.517Z,14.80
2023-02-22T15:19:52.781Z,14.68
2023-02-22T15:22:24.440Z,15.33
2023-02-22T15:25:02.493Z,15.72
2023-02-22T15:27:36.848Z,15.72
2023-02-22T15:30:09.016Z,15.82
2023-02-22T15:32:49.986Z,15.71
2023-02-22T15:35:30.050Z,15.56
2023-02-22T15:38:03.618Z,15.12
2023-02-22T15:40:34.100Z,15.59
2023-02-22T15:43:08.815Z,15.22
2023-02-22T15:45:42.928Z,15.53
2023-02-22T15:48:12.589Z,15.66
2023-02-22T15:51:04.246Z,15.74
2023-02-22T15:53:43.093Z,15.28
2023-02-22T15:56:18.204Z,15.35
2023-02-22T15:58:49.390Z,15.74
2023-02-22T16:01:21.305Z,15.17
2023-02-22T16:03:53.041Z,15.18
2023-02-22T16:06:33.535Z,15.43
2023-02-22T16:09:09.915Z,14.64
2023-02-22T16:11:44.490Z,15.02
2023-02-22T16:14:30.292Z,14.75
2023-02-22T16:17:32.095Z,14.79
2023-02-22T16:20:01.791Z,14.38
2023-02-22T16:22:34.862Z,14.44
2023-02-22T16:25:27.393Z,14.23
2023-02-22T16:28:01.571Z,14.43
2023-02-22T16:30:35.707Z,14.10
2023-02-22T16:33:10.043Z,14.13
2023-02-22T16:35:38.007Z,14.63
2023-02-22T16:38:17.025Z,14.24
2023-02-22T16:40:52.455Z,14.08
2023-02-22T16:43:25.663Z,13.59
2023-02-22T16:45:54.003Z,13.73
2023-02-22T16:48:24.673Z,13.56
2023-02-22T16:50:55.344Z,13.65
2023-02-22T16:53:27.513Z,14.02
2023-02-22T16:56:02.707Z,13.59
2023-02-22T16:58:37.833Z,14.34
2023-02-22T17:01:06.297Z,14.50
2023-02-22T17:03:35.326Z,13.90
2023-02-22T17:06:03.297Z,13.61
2023-02-22T17:08:32.441Z,14.28
2023-02-22T17:11:00.841Z,13.45
2023-02-22T17:13:31.157Z,13.12
2023-02-22T17:15:59.462Z,13.38
2023-02-22T17:18:33.993Z,13.82
2023-02-22T17:21:03.442Z,13.11
2023-02-22T17:23:31.380Z,12.48
2023-02-22T17:26:06.322Z,12.44
2023-02-22T17:28:35.770Z,12.13
2023-02-22T17:31:03.758Z,12.13
2023-02-22T17:33:36.718Z,12.59
2023-02-22T17:36:06.624Z,12.58
2023-02-22T17:38:34.834Z,12.34
2023-02-22T17:41:07.790Z,12.11
2023-02-22T17:43:37.179Z,11.97
2023-02-22T17:46:09.005Z,12.45
2023-02-22T17:48:37.111Z,12.45
2023-02-22T17:51:11.752Z,12.54
2023-02-22T17:53:40.764Z,12.64
2023-02-22T17:56:16.685Z,12.70
2023-02-22T17:58:47.224Z,12.30
2023-02-22T18:01:27.148Z,12.78
2023-02-22T18:03:59.197Z,12.42
2023-02-22T18:06:41.045Z,12.21
2023-02-22T18:09:11.334Z,12.31
2023-02-22T18:11:42.545Z,11.99
2023-02-22T18:14:12.395Z,12.09
2023-02-22T18:16:41.463Z,12.50
2023-02-22T18:19:20.444Z,12.61
2023-02-22T18:21:52.152Z,12.43
2023-02-22T18:24:19.956Z,12.39
2023-02-22T18:26:47.993Z,12.39
2023-02-22T18:29:17.530Z,12.19
2023-02-22T18:31:45.734Z,12.21
2023-02-22T18:34:15.759Z,12.16
2023-02-22T18:36:43.792Z,12.17
2023-02-22T18:39:13.017Z,12.30
2023-02-22T18:41:41.244Z,12.00
2023-02-22T18:44:11.013Z,11.54
2023-02-22T18:46:43.586Z,11.75
2023-02-22T18:49:13.871Z,11.66
2023-02-22T18:51:43.629Z,11.78
2023-02-22T18:54:14.035Z,11.53
2023-02-22T18:56:42.024Z,11.78
2023-02-22T18:59:13.191Z,11.66
2023-02-22T19:01:48.787Z,11.48
2023-02-22T19:04:18.300Z,11.44
2023-02-22T19:06:48.417Z,11.63
2023-02-22T19:09:16.575Z,11.53
2023-02-22T19:11:46.630Z,11.77
2023-02-22T19:14:16.600Z,11.50
2023-02-22T19:16:46.404Z,11.28
2023-02-22T19:19:20.653Z,10.93
2023-02-22T19:21:49.528Z,10.94
2023-02-22T19:24:19.240Z,10.92
2023-02-22T19:26:50.721Z,11.11
2023-02-22T19:29:22.213Z,11.00
2023-02-22T19:31:52.307Z,10.73
2023-02-22T19:34:24.807Z,10.82
2023-02-22T19:36:53.622Z,10.55
2023-02-22T19:41:53.157Z,10.65
2023-02-22T19:44:21.086Z,10.70
2023-02-22T19:46:49.066Z,10.87
2023-02-22T19:49:18.633Z,10.79
2023-02-22T19:51:46.713Z,10.90
2023-02-22T19:54:19.490Z,10.89
2023-02-22T19:56:50.844Z,11.52
2023-02-22T19:59:22.835Z,11.47
2023-02-22T20:01:54.490Z,11.51
2023-02-22T20:04:24.474Z,10.89
2023-02-22T20:06:55.201Z,11.51
2023-02-22T20:09:29.898Z,11.08
2023-02-22T20:11:58.711Z,11.00
2023-02-22T20:14:28.531Z,10.91
2023-02-22T20:16:59.029Z,10.96
2023-02-22T20:19:29.877Z,10.89
2023-02-22T20:22:12.764Z,11.20
2023-02-22T20:24:41.084Z,11.58
2023-02-22T20:27:09.760Z,10.90
2023-02-22T20:29:37.702Z,11.33
2023-02-22T20:32:17.846Z,11.20
2023-02-22T20:34:52.716Z,10.92
2023-02-22T20:37:21.652Z,10.67
2023-02-22T20:39:52.433Z,10.56
2023-02-22T20:42:20.484Z,10.75
2023-02-22T20:44:51.072Z,10.57
2023-02-22T20:47:19.099Z,10.58
2023-02-22T20:49:47.147Z,10.63
2023-02-22T20:52:16.643Z,10.83
2023-02-22T20:54:44.753Z,10.30
2023-02-22T20:57:12.820Z,10.30
2023-02-22T20:59:48.842Z,10.47
2023-02-22T21:02:16.767Z,10.65
2023-02-22T21:04:44.664Z,10.59
2023-02-22T21:07:12.646Z,10.27
2023-02-22T21:09:42.042Z,10.13
2023-02-22T21:12:13.487Z,10.18
2023-02-22T21:14:44.170Z,10.25
2023-02-22T21:17:12.332Z,10.24
2023-02-22T21:19:40.380Z,10.05
2023-02-22T21:22:08.433Z,10.03
2023-02-22T21:24:37.699Z,9.95
2023-02-22T21:27:07.124Z,10.30
2023-02-22T21:29:35.857Z,10.53
2023-02-22T21:32:04.034Z,10.32
2023-02-22T21:34:32.192Z,10.74
2023-02-22T21:37:00.262Z,10.88
2023-02-22T21:39:29.016Z,11.02
2023-02-22T21:42:00.465Z,11.09
2023-02-22T21:44:31.407Z,11.21
2023-02-22T21:47:00.198Z,11.25
2023-02-22T21:49:28.908Z,11.20
2023-02-22T21:51:57.564Z,11.00
2023-02-22T21:54:27.904Z,11.27
2023-02-22T21:56:55.825Z,11.24
2023-02-22T21:59:24.015Z,11.29
2023-02-22T22:01:56.705Z,10.96
2023-02-22T22:04:27.827Z,11.02
2023-02-22T22:06:58.700Z,10.88
2023-02-22T22:09:33.149Z,11.09
2023-02-22T22:12:05.218Z,11.57
2023-02-22T22:14:35.206Z,11.93
2023-02-22T22:17:09.309Z,11.60
2023-02-22T22:19:40.556Z,12.00
2023-02-22T22:22:09.338Z,11.60
2023-02-22T22:24:41.276Z,11.43
2023-02-22T22:27:12.203Z,11.70
2023-02-22T22:29:40.239Z,11.82
2023-02-22T22:32:10.530Z,11.98
2023-02-22T22:34:38.913Z,11.69
2023-02-22T22:37:07.636Z,11.71
2023-02-22T22:39:35.610Z,11.37
2023-02-22T22:42:03.603Z,11.42
2023-02-22T22:44:32.854Z,11.55
2023-02-22T22:47:01.058Z,10.92
2023-02-22T22:49:32.573Z,10.88
2023-02-22T22:52:00.486Z,11.13
2023-02-22T22:54:28.924Z,10.98
2023-02-22T22:56:56.824Z,10.89
2023-02-22T22:59:24.933Z,11.14
2023-02-22T23:01:52.961Z,10.83
2023-02-22T23:04:24.144Z,10.84
2023-02-22T23:06:55.387Z,10.82
2023-02-22T23:09:26.018Z,10.61
2023-02-22T23:11:58.193Z,10.46
2023-02-22T23:14:31.091Z,10.93
2023-02-22T23:17:03.562Z,10.45
2023-02-22T23:19:32.685Z,10.82
2023-02-22T23:22:05.569Z,10.50
2023-02-22T23:24:36.251Z,10.28
2023-02-22T23:27:07.264Z,10.54
2023-02-22T23:29:39.617Z,10.65
2023-02-22T23:32:08.660Z,11.28
2023-02-22T23:34:41.039Z,11.46
2023-02-22T23:37:14.214Z,11.31
2023-02-22T23:39:42.625Z,11.19
2023-02-22T23:42:10.482Z,10.78
2023-02-22T23:47:31.709Z,10.77
2023-02-22T23:49:59.900Z,10.88
2023-02-22T23:52:29.882Z,10.79
2023-02-22T23:54:58.300Z,10.95
2023-02-22T23:57:26.223Z,10.95
2023-02-22T23:59:54.570Z,10.92
